Date,TemperatureHighF,TemperatureAvgF,TemperatureLowF,DewpointHighF,DewpointAvgF,DewpointLowF,HumidityHigh,HumidityAvg,HumidityLow,PressureMaxIn,PressureMinIn,WindSpeedMaxMPH,WindSpeedAvgMPH,GustSpeedMaxMPH,PrecipitationSumIn
2013-3-1,39.0,31.3,24.0,24.0,18.5,9.0,70,59,44,0.00,40.00,30,20,40,0.00
2013-3-2,49.0,39.9,25.0,24.0,20.7,17.0,80,48,28,0.00,40.00,22,10,35,0.00
2013-3-3,44.0,39.1,35.0,27.0,22.2,16.0,70,51,34,0.00,40.00,42,18,56,0.00
2013-3-4,35.0,21.5,8.0,22.0,10.7,3.0,92,64,42,0.00,40.00,37,17,46,0.04
2013-3-5,40.0,25.3,6.0,11.0,3.2,-6.0,81,44,17,0.00,40.00,26,7,29,0.00
2013-3-6,52.0,41.2,30.0,14.0,8.1,-4.0,39,26,15,0.00,40.00,28,17,35,0.00
2013-3-7,47.0,38.7,29.0,26.0,20.6,12.0,72,50,29,0.00,40.00,20,8,30,0.00
2013-3-8,50.0,37.6,27.0,27.0,17.4,9.0,89,48,20,0.00,40.00,18,7,24,0.00
2013-3-9,33.0,25.3,18.0,27.0,20.9,13.0,97,84,68,0.00,40.00,29,20,36,0.21
2013-3-10,38.0,27.6,18.0,17.0,12.9,4.0,92,56,36,0.00,40.00,29,18,37,0.00
2013-3-11,36.0,29.4,21.0,29.0,18.7,11.0,98,68,37,0.00,40.00,39,20,52,0.54
2013-3-12,40.0,24.5,9.0,26.0,19.1,8.0,96,82,47,0.00,40.00,18,6,24,0.00
2013-3-13,47.0,39.6,32.0,28.0,24.4,20.0,69,54,38,0.00,40.00,27,10,42,0.00
2013-3-14,55.0,46.0,37.0,27.0,21.6,14.0,56,38,23,0.00,40.00,27,13,33,0.00
2013-3-15,56.0,49.4,40.0,29.0,18.0,9.0,65,30,15,0.00,40.00,40,22,52,0.00
2013-3-16,48.0,39.2,28.0,30.0,18.5,1.0,87,48,17,0.00,40.00,34,13,45,0.00
2013-3-17,41.0,32.3,20.0,26.0,9.1,-4.0,77,38,18,0.00,40.00,52,28,64,0.00
2013-3-18,33.0,25.1,18.0,17.0,5.2,1.0,61,43,27,0.00,40.00,37,25,54,0.00
2013-3-19,38.0,28.1,18.0,13.0,0.0,-10.0,78,34,13,0.00,40.00,32,20,45,0.00
2013-3-20,47.0,34.6,18.0,26.0,8.7,-8.0,62,36,15,0.00,40.00,31,16,59,0.00
2013-3-21,39.0,31.8,22.0,32.0,20.8,5.0,98,64,39,0.00,40.00,28,14,37,0.00
2013-3-22,28.0,21.1,15.0,14.0,5.4,-2.0,92,52,28,0.00,40.00,23,12,32,0.03
2013-3-23,15.0,11.3,8.0,13.0,8.6,5.0,92,89,80,0.00,40.00,16,11,21,0.04
2013-3-25,31.0,18.9,7.0,11.0,2.8,-3.0,68,51,27,0.00,40.00,17,7,22,0.00
2013-3-26,40.0,29.6,14.0,27.0,16.0,-3.0,92,58,39,0.00,40.00,22,10,30,0.00
2013-3-27,49.0,35.6,24.0,28.0,22.8,16.0,94,63,26,0.00,40.00,21,6,29,0.00
2013-3-28,52.0,42.3,29.0,27.0,22.2,18.0,75,47,26,0.00,40.00,21,9,29,0.00
2013-3-29,52.0,42.3,33.0,35.0,27.8,22.0,89,58,33,0.00,40.00,40,11,52,0.00
2013-3-30,51.0,40.3,28.0,31.0,23.1,-99.9,91,54,28,0.00,40.00,37,17,47,0.00
2013-3-31,55.0,41.8,26.0,23.0,13.2,0.0,74,37,11,0.00,40.00,30,12,39,0.00